Time;durP1;ratioP1;P1;durP2;ratioP2;P2;SDS_P1;SDS_P2;PMS_P1;PMS_P2;Temp;Humidity;BMP_temperature;BMP_pressure;BME280_temperature;BME280_humidity;BME280_pressure;Samples;Min_cycle;Max_cycle;Signal;HPM_P1;HPM_P2
2021/07/01 00:00:54;;;;;;;0.20;0.20;;;10.10;99.90;;;;;;2072372;28;20177;-68
2021/07/01 00:01:58;;;;;;;0.60;0.60;;;10.10;99.90;;;;;;2064139;28;20712;-69
2021/07/01 00:02:59;;;;;;;0.30;0.30;;;10.10;99.90;;;;;;2064762;28;20176;-69
2021/07/01 00:03:59;;;;;;;0.30;0.30;;;10.10;99.90;;;;;;2071965;28;20194;-68
2021/07/01 00:05:00;;;;;;;0.23;0.23;;;10.20;99.90;;;;;;2072405;28;20181;-69
2021/07/01 00:06:01;;;;;;;0.63;0.63;;;10.20;99.90;;;;;;2072381;28;20169;-68
2021/07/01 00:07:01;;;;;;;0.20;0.20;;;10.20;99.90;;;;;;2064704;28;20268;-69
2021/07/01 00:08:02;;;;;;;0.50;0.50;;;10.30;99.90;;;;;;2072369;28;20173;-69
2021/07/01 00:09:04;;;;;;;0.30;0.30;;;10.20;99.90;;;;;;2064101;28;20292;-67
2021/07/01 00:10:22;;;;;;;0.40;0.40;;;10.20;99.90;;;;;;2064279;28;20187;-69
2021/07/01 00:11:23;;;;;;;0.40;0.40;;;10.20;99.90;;;;;;2070031;28;20275;-68
2021/07/01 00:12:24;;;;;;;0.60;0.60;;;10.10;99.90;;;;;;2064078;28;20559;-68
2021/07/01 00:13:25;;;;;;;0.40;0.40;;;10.10;99.90;;;;;;2063913;28;20190;-69
2021/07/01 00:14:25;;;;;;;0.30;0.30;;;10.10;99.90;;;;;;2064697;28;20198;-69
2021/07/01 00:15:30;;;;;;;0.40;0.40;;;10.10;99.90;;;;;;2056067;28;20190;-69
2021/07/01 00:16:31;;;;;;;0.30;0.30;;;10.20;99.90;;;;;;2048625;28;20223;-69
2021/07/01 00:17:32;;;;;;;0.30;0.30;;;10.20;99.90;;;;;;2048062;28;20621;-68
2021/07/01 00:18:33;;;;;;;1.63;0.57;;;10.20;99.90;;;;;;2064166;28;20181;-69
2021/07/01 00:19:34;;;;;;;0.43;0.43;;;10.20;99.90;;;;;;2072342;28;20730;-69
2021/07/01 00:20:34;;;;;;;0.50;0.50;;;10.10;99.90;;;;;;2072350;28;20187;-68
2021/07/01 00:21:35;;;;;;;0.20;0.20;;;10.20;99.90;;;;;;2064176;28;20229;-68
2021/07/01 00:22:36;;;;;;;0.40;0.40;;;10.20;99.90;;;;;;2072359;28;20558;-69
2021/07/01 00:23:37;;;;;;;0.30;0.30;;;10.20;99.90;;;;;;2063753;28;20181;-69
2021/07/01 00:24:38;;;;;;;0.27;0.27;;;10.20;99.90;;;;;;2056073;28;20174;-69
2021/07/01 00:25:39;;;;;;;0.20;0.20;;;10.20;99.90;;;;;;2064083;28;20657;-69
2021/07/01 00:26:40;;;;;;;0.43;0.43;;;10.10;99.90;;;;;;2064864;28;20260;-68
2021/07/01 00:27:41;;;;;;;0.30;0.30;;;10.10;99.90;;;;;;2072269;28;20275;-69
2021/07/01 00:28:41;;;;;;;0.73;0.73;;;10.20;99.90;;;;;;2072227;28;20181;-69
2021/07/01 00:29:42;;;;;;;0.30;0.30;;;10.20;99.90;;;;;;2064122;28;20186;-68
2021/07/01 00:30:43;;;;;;;0.50;0.30;;;10.20;99.90;;;;;;2064198;28;20205;-69
2021/07/01 00:31:43;;;;;;;0.20;0.20;;;10.20;99.90;;;;;;2064758;28;20178;-69
2021/07/01 00:32:45;;;;;;;0.40;0.40;;;10.20;99.90;;;;;;2064708;28;20181;-69
2021/07/01 00:33:46;;;;;;;0.30;0.30;;;10.20;99.90;;;;;;2063689;28;20676;-69
2021/07/01 00:34:47;;;;;;;0.20;0.20;;;10.20;99.90;;;;;;2064126;28;20649;-69
2021/07/01 00:35:47;;;;;;;0.73;0.60;;;10.30;99.90;;;;;;2064717;28;20174;-68
2021/07/01 00:36:48;;;;;;;0.50;0.50;;;10.30;99.90;;;;;;2064725;28;20209;-69
2021/07/01 00:37:50;;;;;;;0.50;0.50;;;10.30;99.90;;;;;;2064814;28;20229;-69
2021/07/01 00:38:51;;;;;;;0.40;0.40;;;10.30;99.90;;;;;;2064150;28;20166;-69
2021/07/01 00:39:51;;;;;;;0.50;0.50;;;10.30;99.90;;;;;;2064042;28;20173;-68
2021/07/01 00:40:52;;;;;;;0.20;0.20;;;10.30;99.90;;;;;;2072203;28;20605;-69
2021/07/01 00:41:53;;;;;;;0.97;0.37;;;10.20;99.90;;;;;;2072310;28;20231;-69
2021/07/01 00:42:53;;;;;;;0.33;0.33;;;10.20;99.90;;;;;;2064000;28;20173;-68
2021/07/01 00:43:54;;;;;;;0.43;0.43;;;10.30;99.90;;;;;;2055957;28;20544;-69
2021/07/01 00:44:55;;;;;;;0.30;0.30;;;10.20;99.90;;;;;;2055964;28;20269;-69
2021/07/01 00:45:56;;;;;;;0.20;0.20;;;10.20;99.90;;;;;;2056213;28;20183;-67
2021/07/01 00:46:56;;;;;;;0.27;0.27;;;10.20;99.90;;;;;;2064191;28;20582;-69
2021/07/01 00:47:57;;;;;;;0.40;0.40;;;10.30;99.90;;;;;;2072296;28;20169;-69
2021/07/01 00:48:58;;;;;;;0.40;0.40;;;10.30;99.90;;;;;;2072255;28;20177;-69
2021/07/01 00:50:06;;;;;;;0.30;0.30;;;10.30;99.90;;;;;;2072121;28;20239;-68
2021/07/01 00:51:06;;;;;;;0.43;0.43;;;10.20;99.90;;;;;;2063164;28;20770;-70
2021/07/01 00:52:07;;;;;;;0.30;0.30;;;10.30;99.90;;;;;;2056132;28;20182;-69
2021/07/01 00:53:08;;;;;;;0.50;0.50;;;10.30;99.90;;;;;;2065041;28;20204;-69
2021/07/01 00:54:09;;;;;;;0.33;0.33;;;10.40;99.90;;;;;;2074148;28;20231;-69
2021/07/01 00:55:12;;;;;;;0.40;0.40;;;10.40;99.90;;;;;;2072276;28;20623;-68
2021/07/01 00:56:15;;;;;;;0.60;0.30;;;10.40;99.90;;;;;;2064056;28;20738;-69
2021/07/01 00:57:16;;;;;;;0.30;0.30;;;10.40;99.90;;;;;;2064176;28;20237;-68
2021/07/01 00:58:16;;;;;;;0.40;0.40;;;10.40;99.90;;;;;;2064252;28;20572;-69
2021/07/01 00:59:17;;;;;;;0.20;0.20;;;10.40;99.90;;;;;;2072264;28;20185;-69
2021/07/01 01:01:38;;;;;;;0.70;0.40;;;10.50;99.90;;;;;;2072151;28;20204;-68
2021/07/01 01:02:38;;;;;;;0.30;0.30;;;10.60;99.90;;;;;;2069904;28;20181;-70
2021/07/01 01:03:39;;;;;;;0.23;0.23;;;10.60;99.90;;;;;;2071801;28;20216;-71
2021/07/01 01:04:40;;;;;;;0.30;0.30;;;10.60;99.90;;;;;;2073740;28;20651;-69
2021/07/01 01:05:40;;;;;;;0.43;0.43;;;10.60;99.90;;;;;;2065788;28;20212;-68
2021/07/01 01:06:41;;;;;;;0.30;0.30;;;10.70;99.90;;;;;;2066240;28;20186;-71
2021/07/01 01:07:42;;;;;;;0.60;0.60;;;10.70;99.90;;;;;;2073754;28;20627;-70
2021/07/01 01:08:43;;;;;;;0.30;0.30;;;10.70;99.90;;;;;;2073698;28;20185;-70
2021/07/01 01:09:44;;;;;;;0.43;0.43;;;10.70;99.90;;;;;;2065660;28;20606;-69
2021/07/01 01:10:45;;;;;;;0.55;0.45;;;10.70;99.90;;;;;;2073712;28;20652;-70
2021/07/01 01:11:46;;;;;;;0.30;0.30;;;10.70;99.90;;;;;;2073658;28;20274;-70
2021/07/01 01:12:46;;;;;;;0.20;0.20;;;10.70;99.90;;;;;;2066248;28;20179;-70
2021/07/01 01:13:47;;;;;;;0.30;0.30;;;10.70;99.90;;;;;;2073349;28;20762;-70
2021/07/01 01:14:48;;;;;;;0.50;0.50;;;10.70;99.90;;;;;;2073607;28;20177;-70
2021/07/01 01:15:48;;;;;;;0.23;0.23;;;10.70;99.90;;;;;;2066168;28;20177;-69
2021/07/01 01:16:49;;;;;;;0.20;0.20;;;10.70;99.90;;;;;;2066006;28;20206;-69
2021/07/01 01:17:50;;;;;;;0.47;0.37;;;10.80;99.90;;;;;;2066177;28;20228;-70
2021/07/01 01:18:51;;;;;;;0.40;0.40;;;10.80;99.90;;;;;;2066119;28;20206;-69
2021/07/01 01:19:52;;;;;;;0.40;0.40;;;10.80;99.90;;;;;;2065983;28;20547;-70
2021/07/01 01:20:56;;;;;;;0.20;0.20;;;10.80;99.90;;;;;;2073594;28;20174;-69
2021/07/01 01:21:57;;;;;;;0.38;0.38;;;10.80;99.90;;;;;;2064749;28;20196;-69
2021/07/01 01:22:59;;;;;;;0.40;0.40;;;10.80;99.90;;;;;;2057296;28;20202;-70
2021/07/01 01:24:01;;;;;;;0.28;0.28;;;10.90;99.90;;;;;;2073339;28;20197;-70
2021/07/01 01:25:02;;;;;;;0.30;0.30;;;10.80;99.90;;;;;;2073518;28;20252;-70
2021/07/01 01:26:03;;;;;;;0.20;0.20;;;10.80;99.90;;;;;;2073539;28;20184;-69
2021/07/01 01:27:04;;;;;;;0.30;0.30;;;10.70;99.90;;;;;;2073379;28;20186;-70
2021/07/01 01:28:05;;;;;;;0.43;0.43;;;10.70;99.90;;;;;;2065421;28;20551;-69
2021/07/01 01:29:05;;;;;;;0.40;0.40;;;10.70;99.90;;;;;;2066085;28;20435;-70
2021/07/01 01:30:08;;;;;;;0.37;0.37;;;10.80;99.90;;;;;;2065402;28;20265;-69
2021/07/01 01:31:09;;;;;;;0.38;0.38;;;10.80;99.90;;;;;;2065519;28;20617;-70
2021/07/01 01:32:09;;;;;;;0.37;0.37;;;10.80;99.90;;;;;;2073466;28;20188;-70
2021/07/01 01:33:11;;;;;;;0.30;0.30;;;10.90;99.90;;;;;;2073272;28;20215;-69
2021/07/01 01:34:11;;;;;;;1.00;0.60;;;10.90;99.90;;;;;;2073272;28;20263;-70
2021/07/01 01:35:12;;;;;;;0.30;0.30;;;10.90;99.90;;;;;;2065544;28;20763;-70
2021/07/01 01:36:13;;;;;;;0.30;0.30;;;11.00;99.90;;;;;;2065953;28;20210;-69
2021/07/01 01:37:14;;;;;;;0.30;0.30;;;11.00;99.90;;;;;;2065230;28;20186;-70
2021/07/01 01:38:17;;;;;;;0.67;0.60;;;11.00;99.90;;;;;;2065310;28;20221;-70
2021/07/01 01:39:21;;;;;;;0.40;0.40;;;11.10;99.90;;;;;;2065857;28;20182;-70
2021/07/01 01:40:22;;;;;;;0.50;0.50;;;11.10;99.90;;;;;;2073489;28;20173;-70
2021/07/01 01:41:27;;;;;;;0.43;0.43;;;11.10;99.90;;;;;;2073451;28;20217;-69
2021/07/01 01:42:28;;;;;;;0.60;0.60;;;11.10;99.90;;;;;;2065316;28;20205;-69
2021/07/01 01:43:29;;;;;;;0.37;0.37;;;11.10;99.90;;;;;;2064914;28;20295;-69
2021/07/01 01:44:30;;;;;;;0.60;0.47;;;11.00;99.90;;;;;;2065852;28;20558;-70
2021/07/01 01:45:31;;;;;;;0.40;0.40;;;11.00;99.90;;;;;;2065790;28;20177;-70
2021/07/01 01:46:39;;;;;;;0.30;0.30;;;11.10;99.90;;;;;;2065953;28;20181;-70
2021/07/01 01:47:49;;;;;;;0.50;0.50;;;11.00;99.90;;;;;;2057184;28;20202;-70
2021/07/01 01:48:52;;;;;;;0.52;0.52;;;11.00;99.90;;;;;;2051560;28;20646;-70
2021/07/01 01:49:53;;;;;;;0.40;0.40;;;11.00;99.90;;;;;;2065405;28;20186;-71
2021/07/01 01:50:53;;;;;;;0.30;0.30;;;11.00;99.90;;;;;;2065197;28;20824;-70
2021/07/01 01:51:54;;;;;;;0.60;0.60;;;11.00;99.90;;;;;;2057225;28;20182;-70
2021/07/01 01:52:55;;;;;;;0.70;0.70;;;11.10;99.90;;;;;;2065283;28;20232;-70
2021/07/01 01:53:56;;;;;;;0.60;0.60;;;11.10;99.90;;;;;;2064742;28;20276;-71
2021/07/01 01:54:56;;;;;;;0.67;0.67;;;11.10;99.90;;;;;;2065229;28;20182;-70
2021/07/01 01:55:57;;;;;;;0.40;0.40;;;11.10;99.90;;;;;;2065734;28;20629;-70
2021/07/01 01:56:58;;;;;;;0.50;0.50;;;11.10;99.90;;;;;;2065901;28;20169;-70
2021/07/01 01:57:59;;;;;;;0.20;0.20;;;11.10;99.90;;;;;;2065770;28;20179;-69
2021/07/01 01:59:00;;;;;;;0.50;0.50;;;11.20;99.90;;;;;;2065760;28;20607;-70
2021/07/01 02:00:00;;;;;;;0.33;0.33;;;11.20;99.90;;;;;;2065738;28;20217;-70
2021/07/01 02:01:01;;;;;;;0.60;0.60;;;11.20;99.90;;;;;;2065093;28;20604;-70
2021/07/01 02:02:02;;;;;;;0.40;0.40;;;11.20;99.90;;;;;;2057042;28;20214;-70
2021/07/01 02:03:03;;;;;;;0.20;0.20;;;11.20;99.90;;;;;;2065237;28;20770;-70
2021/07/01 02:04:04;;;;;;;0.80;0.80;;;11.20;99.90;;;;;;2065652;28;20207;-70
2021/07/01 02:05:07;;;;;;;0.57;0.57;;;11.20;99.90;;;;;;2065151;28;20538;-71
2021/07/01 02:06:07;;;;;;;0.63;0.63;;;11.20;99.90;;;;;;2073138;28;20184;-70
2021/07/01 02:07:08;;;;;;;0.50;0.50;;;11.30;99.90;;;;;;2073234;28;20184;-70
2021/07/01 02:08:10;;;;;;;0.60;0.60;;;11.20;99.90;;;;;;2073143;28;20178;-70
2021/07/01 02:09:10;;;;;;;0.70;0.70;;;11.20;99.90;;;;;;2073177;28;20204;-70
2021/07/01 02:10:16;;;;;;;0.80;0.73;;;11.30;99.90;;;;;;2065558;28;20190;-70
2021/07/01 02:11:16;;;;;;;1.13;0.95;;;11.20;99.90;;;;;;2073203;28;20249;-70
2021/07/01 02:12:17;;;;;;;0.50;0.50;;;11.30;99.90;;;;;;2073076;28;20174;-70
2021/07/01 02:13:18;;;;;;;0.60;0.60;;;11.30;99.90;;;;;;2072950;28;20224;-69
2021/07/01 02:14:19;;;;;;;1.00;0.97;;;11.30;99.90;;;;;;2072978;28;20205;-70
2021/07/01 02:15:22;;;;;;;0.40;0.40;;;11.20;99.90;;;;;;2072361;28;20556;-70
2021/07/01 02:16:23;;;;;;;0.30;0.30;;;11.30;99.90;;;;;;2072221;28;20212;-69
2021/07/01 02:17:24;;;;;;;0.60;0.60;;;11.30;99.90;;;;;;2073079;28;20192;-70
2021/07/01 02:18:24;;;;;;;0.50;0.50;;;11.30;99.90;;;;;;2072868;28;20599;-70
2021/07/01 02:19:25;;;;;;;1.17;0.77;;;11.30;99.90;;;;;;2065603;28;20178;-70
2021/07/01 02:20:27;;;;;;;0.40;0.40;;;11.40;99.90;;;;;;2065544;28;20676;-70
2021/07/01 02:21:28;;;;;;;0.30;0.30;;;11.40;99.90;;;;;;2064872;28;20182;-70
2021/07/01 02:22:29;;;;;;;0.57;0.57;;;11.40;99.90;;;;;;2056839;28;20314;-70
2021/07/01 02:23:29;;;;;;;0.63;0.63;;;11.40;99.90;;;;;;2056600;28;20269;-72
2021/07/01 02:24:30;;;;;;;1.40;0.73;;;11.40;99.90;;;;;;2064925;28;20694;-69
2021/07/01 02:25:33;;;;;;;1.07;0.97;;;11.40;99.90;;;;;;2064965;28;20205;-70
2021/07/01 02:26:34;;;;;;;0.55;0.55;;;11.40;99.90;;;;;;2057059;28;20273;-70
2021/07/01 02:27:36;;;;;;;0.60;0.60;;;11.40;99.90;;;;;;2057011;28;20191;-69
2021/07/01 02:28:37;;;;;;;0.65;0.65;;;11.40;99.90;;;;;;2064907;28;20198;-70
2021/07/01 02:29:38;;;;;;;0.40;0.40;;;11.40;99.90;;;;;;2064996;28;20217;-70
2021/07/01 02:30:39;;;;;;;0.45;0.45;;;11.50;99.90;;;;;;2064846;28;20181;-69
2021/07/01 02:31:39;;;;;;;0.70;0.60;;;11.40;99.90;;;;;;2064878;28;20232;-70
2021/07/01 02:32:40;;;;;;;0.47;0.47;;;11.40;99.90;;;;;;2064902;28;20190;-69
2021/07/01 02:33:42;;;;;;;0.63;0.63;;;11.40;99.90;;;;;;2064616;28;20265;-70
2021/07/01 02:34:43;;;;;;;0.73;0.73;;;11.30;99.90;;;;;;2064809;28;20193;-70
2021/07/01 02:35:44;;;;;;;0.77;0.77;;;11.30;99.90;;;;;;2072918;28;20582;-70
2021/07/01 02:36:44;;;;;;;0.50;0.50;;;11.30;99.90;;;;;;2072844;28;20201;-69
2021/07/01 02:37:45;;;;;;;0.50;0.50;;;11.30;99.90;;;;;;2065334;28;20175;-69
2021/07/01 02:38:46;;;;;;;0.40;0.40;;;11.30;99.90;;;;;;2065474;28;20171;-70
2021/07/01 02:39:47;;;;;;;0.73;0.73;;;11.30;99.90;;;;;;2064710;28;20183;-69
2021/07/01 02:40:47;;;;;;;0.63;0.63;;;11.40;99.90;;;;;;2064841;28;20174;-70
2021/07/01 02:41:49;;;;;;;0.40;0.40;;;11.40;99.90;;;;;;2065436;28;20661;-70
2021/07/01 02:42:50;;;;;;;0.35;0.35;;;11.40;99.90;;;;;;2065316;28;20178;-69
2021/07/01 02:43:50;;;;;;;0.30;0.30;;;11.40;99.90;;;;;;2072598;28;20360;-70
2021/07/01 02:44:51;;;;;;;0.70;0.70;;;11.50;99.90;;;;;;2072921;28;20258;-70
2021/07/01 02:45:52;;;;;;;0.60;0.60;;;11.40;99.90;;;;;;2064777;28;20174;-70
2021/07/01 02:46:53;;;;;;;0.80;0.80;;;11.40;99.90;;;;;;2065430;28;20183;-70
2021/07/01 02:47:54;;;;;;;0.40;0.40;;;11.40;99.90;;;;;;2064627;28;20197;-70
2021/07/01 02:48:55;;;;;;;0.60;0.60;;;11.30;99.90;;;;;;2064785;28;20182;-69
2021/07/01 02:49:55;;;;;;;1.60;0.70;;;11.20;99.90;;;;;;2064753;28;20182;-70
2021/07/01 02:50:56;;;;;;;1.00;0.80;;;11.20;99.90;;;;;;2064780;28;20418;-68
2021/07/01 02:51:57;;;;;;;0.70;0.70;;;11.10;99.90;;;;;;2064728;28;20182;-70
2021/07/01 02:52:57;;;;;;;2.50;1.00;;;11.10;99.90;;;;;;2054726;28;20274;-70
2021/07/01 02:53:58;;;;;;;0.40;0.40;;;11.00;99.90;;;;;;2064331;28;20734;-70
2021/07/01 02:54:59;;;;;;;0.60;0.60;;;11.10;99.90;;;;;;2065201;28;20205;-69
2021/07/01 02:55:59;;;;;;;0.83;0.83;;;11.10;99.90;;;;;;2065238;28;20190;-70
2021/07/01 02:57:01;;;;;;;0.57;0.57;;;11.10;99.90;;;;;;2065224;28;20236;-70
2021/07/01 02:58:04;;;;;;;0.65;0.65;;;11.10;99.90;;;;;;2065248;28;20175;-70
2021/07/01 02:59:08;;;;;;;0.88;0.88;;;11.20;99.90;;;;;;2065029;28;20167;-70
2021/07/01 03:00:13;;;;;;;0.80;0.80;;;11.20;99.90;;;;;;2072811;28;20177;-69
2021/07/01 03:01:15;;;;;;;0.90;0.90;;;11.20;99.90;;;;;;2072263;28;20540;-70
2021/07/01 03:02:16;;;;;;;0.70;0.70;;;11.10;99.90;;;;;;2057081;28;20237;-70
2021/07/01 03:03:17;;;;;;;0.60;0.60;;;11.10;99.90;;;;;;2065159;28;20676;-69
2021/07/01 03:04:18;;;;;;;0.75;0.75;;;11.10;99.90;;;;;;2066686;28;20201;-70
2021/07/01 03:05:19;;;;;;;1.20;1.13;;;11.00;99.90;;;;;;2065278;28;20182;-70
2021/07/01 03:06:19;;;;;;;0.80;0.80;;;11.10;99.90;;;;;;2072853;28;20660;-69
2021/07/01 03:07:20;;;;;;;2.10;1.13;;;11.10;99.90;;;;;;2072726;28;20186;-70
2021/07/01 03:08:21;;;;;;;1.43;0.80;;;11.10;99.90;;;;;;2065349;28;20194;-71
2021/07/01 03:09:21;;;;;;;0.73;0.73;;;11.10;99.90;;;;;;2065196;28;20627;-69
2021/07/01 03:10:22;;;;;;;1.47;1.37;;;11.10;99.90;;;;;;2065190;28;20182;-69
2021/07/01 03:11:23;;;;;;;0.50;0.50;;;11.10;99.90;;;;;;2072637;28;20193;-70
2021/07/01 03:12:24;;;;;;;0.80;0.80;;;11.10;99.90;;;;;;2072655;28;20185;-70
2021/07/01 03:13:25;;;;;;;0.80;0.80;;;11.20;99.90;;;;;;2072489;28;20603;-70
2021/07/01 03:14:26;;;;;;;0.65;0.65;;;11.20;99.90;;;;;;2072417;28;20227;-69
2021/07/01 03:15:27;;;;;;;0.60;0.60;;;11.20;99.90;;;;;;2065226;28;20188;-70
2021/07/01 03:16:27;;;;;;;0.70;0.70;;;11.30;99.90;;;;;;2072628;28;20339;-69
2021/07/01 03:17:28;;;;;;;0.43;0.43;;;11.30;99.90;;;;;;2072707;28;20174;-70
2021/07/01 03:18:29;;;;;;;0.83;0.70;;;11.30;99.90;;;;;;2065214;28;20182;-70
2021/07/01 03:19:29;;;;;;;1.93;1.17;;;11.30;99.90;;;;;;2065257;28;20182;-69
2021/07/01 03:20:30;;;;;;;1.30;1.20;;;11.30;99.90;;;;;;2064421;28;20205;-70
2021/07/01 03:21:31;;;;;;;0.80;0.80;;;11.20;99.90;;;;;;2056678;28;20186;-70
2021/07/01 03:22:32;;;;;;;0.70;0.70;;;11.20;99.90;;;;;;2064636;28;20185;-69
2021/07/01 03:23:34;;;;;;;3.67;0.80;;;11.20;99.90;;;;;;2072437;28;20578;-70
2021/07/01 03:24:35;;;;;;;0.60;0.60;;;11.20;99.90;;;;;;2064580;28;20182;-70
2021/07/01 03:25:36;;;;;;;0.47;0.47;;;11.20;99.90;;;;;;2064539;28;20218;-69
2021/07/01 03:26:36;;;;;;;3.20;1.17;;;11.20;99.90;;;;;;2072442;28;20250;-70
2021/07/01 03:27:37;;;;;;;0.77;0.77;;;11.30;99.90;;;;;;2072594;28;20205;-70
2021/07/01 03:28:38;;;;;;;0.50;0.50;;;11.30;99.90;;;;;;2072659;28;20189;-70
2021/07/01 03:29:39;;;;;;;0.75;0.75;;;11.30;99.90;;;;;;2072712;28;20208;-70
2021/07/01 03:30:40;;;;;;;2.43;1.00;;;11.30;99.90;;;;;;2072599;28;20691;-69
2021/07/01 03:31:40;;;;;;;0.63;0.63;;;11.30;99.90;;;;;;2064572;28;20178;-70
2021/07/01 03:32:41;;;;;;;0.70;0.70;;;11.30;99.90;;;;;;2065186;28;20229;-70
2021/07/01 03:33:42;;;;;;;0.43;0.43;;;11.30;99.90;;;;;;2072432;28;20206;-70
2021/07/01 03:34:42;;;;;;;0.93;0.50;;;11.30;99.90;;;;;;2072713;28;20232;-69
2021/07/01 03:35:43;;;;;;;1.90;0.90;;;11.30;99.90;;;;;;2065166;28;20196;-69
2021/07/01 03:36:44;;;;;;;1.23;0.97;;;11.30;99.90;;;;;;2064928;28;20272;-69
2021/07/01 03:37:45;;;;;;;0.97;0.70;;;11.30;99.90;;;;;;2072675;28;20263;-70
2021/07/01 03:38:45;;;;;;;0.77;0.77;;;11.30;99.90;;;;;;2072467;28;20178;-69
2021/07/01 03:39:46;;;;;;;1.53;1.20;;;11.30;99.90;;;;;;2065033;28;20174;-70
2021/07/01 03:40:47;;;;;;;27.10;1.07;;;11.30;99.90;;;;;;2065076;28;20171;-70
2021/07/01 03:41:47;;;;;;;1.13;1.03;;;11.40;99.90;;;;;;2065055;28;20531;-70
2021/07/01 03:42:48;;;;;;;0.90;0.90;;;11.40;99.90;;;;;;2064360;28;20175;-70
2021/07/01 03:43:52;;;;;;;0.43;0.43;;;11.40;99.90;;;;;;2064095;28;20194;-70
2021/07/01 03:44:52;;;;;;;0.63;0.63;;;11.40;99.90;;;;;;2072509;28;20177;-69
2021/07/01 03:45:53;;;;;;;1.20;1.20;;;11.30;99.90;;;;;;2072164;28;20211;-70
2021/07/01 03:46:54;;;;;;;0.97;0.60;;;11.30;99.90;;;;;;2064858;28;20219;-70
2021/07/01 03:47:55;;;;;;;0.73;0.73;;;11.30;99.90;;;;;;2065003;28;20604;-70
2021/07/01 03:48:56;;;;;;;0.70;0.70;;;11.30;99.90;;;;;;2064902;28;20605;-70
2021/07/01 03:49:56;;;;;;;0.97;0.97;;;11.30;99.90;;;;;;2072478;28;20232;-69
2021/07/01 03:50:57;;;;;;;0.90;0.90;;;11.30;99.90;;;;;;2072554;28;20264;-70
2021/07/01 03:51:58;;;;;;;1.30;1.27;;;11.40;99.90;;;;;;2064244;28;20668;-69
2021/07/01 03:52:58;;;;;;;1.07;1.00;;;11.40;99.90;;;;;;2064893;28;20229;-68
2021/07/01 03:53:59;;;;;;;1.80;0.97;;;11.40;99.90;;;;;;2072029;28;20209;-70
2021/07/01 03:55:00;;;;;;;0.50;0.50;;;11.40;99.90;;;;;;2064248;28;20657;-70
2021/07/01 03:56:01;;;;;;;0.70;0.70;;;11.40;99.90;;;;;;2064147;28;20194;-69
2021/07/01 03:57:02;;;;;;;3.83;1.40;;;11.40;99.90;;;;;;2064266;28;20178;-70
2021/07/01 03:58:03;;;;;;;1.63;0.88;;;11.30;99.90;;;;;;2056190;28;20187;-69
2021/07/01 03:59:04;;;;;;;1.40;1.30;;;11.30;99.90;;;;;;2064337;28;20186;-70
2021/07/01 04:00:07;;;;;;;0.90;0.90;;;11.30;99.90;;;;;;2072304;28;20209;-69
2021/07/01 04:01:08;;;;;;;0.80;0.80;;;11.30;99.90;;;;;;2064197;28;20218;-69
2021/07/01 04:02:09;;;;;;;0.70;0.70;;;11.30;99.90;;;;;;2056144;28;20179;-69
2021/07/01 04:03:10;;;;;;;1.07;1.00;;;11.40;99.90;;;;;;2056002;28;20576;-69
2021/07/01 04:04:10;;;;;;;1.23;0.90;;;11.40;99.90;;;;;;2064006;28;20606;-70
2021/07/01 04:05:12;;;;;;;1.00;1.00;;;11.40;99.90;;;;;;2064069;28;20219;-69
2021/07/01 04:06:13;;;;;;;0.75;0.75;;;11.50;99.90;;;;;;2064070;28;20182;-69
2021/07/01 04:07:14;;;;;;;0.63;0.63;;;11.50;99.90;;;;;;2064028;28;20186;-70
2021/07/01 04:08:14;;;;;;;0.50;0.50;;;11.40;99.90;;;;;;2064093;28;20189;-69
2021/07/01 04:09:15;;;;;;;1.50;1.03;;;11.40;99.90;;;;;;2064149;28;20545;-69
2021/07/01 04:10:18;;;;;;;0.83;0.83;;;11.40;99.90;;;;;;2064149;28;20182;-70
2021/07/01 04:11:19;;;;;;;0.98;0.98;;;11.50;99.90;;;;;;2064811;28;20183;-69
2021/07/01 04:12:20;;;;;;;0.50;0.50;;;11.40;99.90;;;;;;2064678;28;20265;-69
2021/07/01 04:13:20;;;;;;;0.83;0.83;;;11.40;99.90;;;;;;2063637;28;20182;-69
2021/07/01 04:14:22;;;;;;;2.30;0.53;;;11.40;99.90;;;;;;2063940;28;20202;-69
2021/07/01 04:15:23;;;;;;;1.55;1.45;;;11.40;99.90;;;;;;2064815;28;20242;-69
2021/07/01 04:16:23;;;;;;;0.97;0.63;;;11.40;99.90;;;;;;2072068;28;20210;-70
2021/07/01 04:17:24;;;;;;;0.77;0.77;;;11.40;99.90;;;;;;2072385;28;20220;-69
2021/07/01 04:18:25;;;;;;;0.50;0.50;;;11.40;99.90;;;;;;2072275;28;20682;-69
2021/07/01 04:19:26;;;;;;;0.80;0.80;;;11.40;99.90;;;;;;2072271;28;20173;-69
2021/07/01 04:20:26;;;;;;;0.50;0.50;;;11.40;99.90;;;;;;2064672;28;20193;-68
2021/07/01 04:21:28;;;;;;;0.90;0.90;;;11.40;99.90;;;;;;2064755;28;20189;-69
2021/07/01 04:22:28;;;;;;;0.88;0.88;;;11.40;99.90;;;;;;2072222;28;20699;-69
2021/07/01 04:23:29;;;;;;;0.50;0.50;;;11.40;99.90;;;;;;2072084;28;20174;-69
2021/07/01 04:24:30;;;;;;;0.70;0.70;;;11.50;99.90;;;;;;2064626;28;20189;-70
2021/07/01 04:25:32;;;;;;;0.73;0.73;;;11.50;99.90;;;;;;2064746;28;20184;-69
2021/07/01 04:26:33;;;;;;;0.55;0.55;;;11.50;99.90;;;;;;2064600;28;20266;-70
2021/07/01 04:27:34;;;;;;;0.75;0.75;;;11.40;99.90;;;;;;2064089;28;20190;-69
2021/07/01 04:28:35;;;;;;;0.68;0.68;;;11.50;99.90;;;;;;2064227;28;20182;-70
2021/07/01 04:29:36;;;;;;;0.70;0.70;;;11.50;99.90;;;;;;2064586;28;20185;-70
2021/07/01 04:30:36;;;;;;;1.37;0.83;;;11.50;99.90;;;;;;2064133;28;20282;-69
2021/07/01 04:31:37;;;;;;;1.07;0.83;;;11.50;99.90;;;;;;2064192;28;20228;-69
2021/07/01 04:32:38;;;;;;;3.13;1.03;;;11.50;99.90;;;;;;2064889;28;20217;-70
2021/07/01 04:33:38;;;;;;;0.60;0.60;;;11.50;99.90;;;;;;2063803;28;20186;-69
2021/07/01 04:34:39;;;;;;;1.07;0.97;;;11.60;99.90;;;;;;2064389;28;20181;-68
2021/07/01 04:35:47;;;;;;;1.10;1.10;;;11.50;99.90;;;;;;2064702;28;20732;-70
2021/07/01 04:36:48;;;;;;;0.88;0.60;;;11.50;99.90;;;;;;2064662;28;20209;-71
2021/07/01 04:37:48;;;;;;;1.00;0.90;;;11.60;99.90;;;;;;2064704;28;20597;-70
2021/07/01 04:38:49;;;;;;;0.90;0.90;;;11.60;99.90;;;;;;2064353;28;20268;-70
2021/07/01 04:39:50;;;;;;;0.53;0.53;;;11.60;99.90;;;;;;2065862;28;20614;-70
2021/07/01 04:40:51;;;;;;;1.50;0.97;;;11.50;99.90;;;;;;2066408;28;20185;-69
2021/07/01 04:41:51;;;;;;;1.17;0.60;;;11.60;99.90;;;;;;2066391;28;20201;-70
2021/07/01 04:42:52;;;;;;;0.50;0.50;;;11.60;99.90;;;;;;2066426;28;20597;-70
2021/07/01 04:43:53;;;;;;;1.23;0.67;;;11.60;99.90;;;;;;2065424;28;20256;-69
2021/07/01 04:44:53;;;;;;;1.23;0.80;;;11.70;99.90;;;;;;2065859;28;20186;-70
2021/07/01 04:45:54;;;;;;;0.80;0.80;;;11.80;99.90;;;;;;2066388;28;20263;-70
2021/07/01 04:46:55;;;;;;;1.30;0.87;;;11.80;99.90;;;;;;2073845;28;20209;-70
2021/07/01 04:47:56;;;;;;;2.40;1.13;;;11.80;99.90;;;;;;2073806;28;20642;-70
2021/07/01 04:48:59;;;;;;;1.08;1.08;;;11.70;99.90;;;;;;2073878;28;20180;-70
2021/07/01 04:50:02;;;;;;;2.65;0.90;;;11.70;99.90;;;;;;2073372;28;20181;-70
2021/07/01 04:51:03;;;;;;;0.65;0.65;;;11.70;99.90;;;;;;2073686;28;20181;-70
2021/07/01 04:52:03;;;;;;;1.20;1.10;;;11.70;99.90;;;;;;2073410;28;20627;-70
2021/07/01 04:53:04;;;;;;;1.20;1.10;;;11.80;99.90;;;;;;2065425;28;20217;-70
2021/07/01 04:54:05;;;;;;;0.90;0.90;;;11.80;99.90;;;;;;2057367;28;20206;-69
2021/07/01 04:55:06;;;;;;;1.00;1.00;;;11.80;99.90;;;;;;2065674;28;20182;-69
2021/07/01 04:56:08;;;;;;;0.70;0.70;;;11.90;99.90;;;;;;2065824;28;20449;-70
2021/07/01 04:57:08;;;;;;;1.50;1.20;;;11.80;99.90;;;;;;2066184;28;20190;-69
2021/07/01 04:58:09;;;;;;;0.97;0.80;;;11.80;99.90;;;;;;2073656;28;20220;-70
2021/07/01 04:59:12;;;;;;;0.47;0.47;;;11.90;99.90;;;;;;2073785;28;20181;-70
2021/07/01 05:00:12;;;;;;;0.65;0.65;;;11.90;99.90;;;;;;2073755;28;20177;-70
2021/07/01 05:01:13;;;;;;;0.87;0.87;;;11.90;99.90;;;;;;2073795;28;20812;-69
2021/07/01 05:02:14;;;;;;;1.00;1.00;;;11.90;99.90;;;;;;2066292;28;20189;-70
2021/07/01 05:03:15;;;;;;;0.90;0.90;;;11.90;99.90;;;;;;2073513;28;20189;-70
2021/07/01 05:04:16;;;;;;;0.60;0.60;;;11.90;99.90;;;;;;2073526;28;20273;-70
2021/07/01 05:05:17;;;;;;;0.47;0.47;;;12.00;99.90;;;;;;2073811;28;20282;-70
2021/07/01 05:06:18;;;;;;;0.40;0.40;;;12.00;99.90;;;;;;2073607;28;20594;-70
2021/07/01 05:07:18;;;;;;;0.80;0.80;;;12.00;99.90;;;;;;2066164;28;20202;-71
2021/07/01 05:08:19;;;;;;;0.70;0.70;;;12.10;99.90;;;;;;2066208;28;20252;-69
2021/07/01 05:09:20;;;;;;;0.77;0.77;;;12.10;99.90;;;;;;2066259;28;20189;-70
2021/07/01 05:10:20;;;;;;;0.50;0.50;;;12.10;99.90;;;;;;2073742;28;20212;-70
2021/07/01 05:11:21;;;;;;;0.70;0.70;;;12.20;99.90;;;;;;2073670;28;20180;-69
2021/07/01 05:12:22;;;;;;;1.83;1.33;;;12.20;99.90;;;;;;2066733;28;20186;-70
2021/07/01 05:13:23;;;;;;;0.80;0.80;;;12.20;99.90;;;;;;2067713;28;20241;-69
2021/07/01 05:14:23;;;;;;;0.60;0.60;;;12.20;99.90;;;;;;2073595;28;20644;-70
2021/07/01 05:15:24;;;;;;;4.03;1.73;;;12.20;99.90;;;;;;2073743;28;20269;-69
2021/07/01 05:16:28;;;;;;;0.90;0.90;;;12.20;99.90;;;;;;2066049;28;20245;-69
2021/07/01 05:17:29;;;;;;;0.98;0.98;;;12.30;99.90;;;;;;2066129;28;20744;-69
2021/07/01 05:18:30;;;;;;;0.93;0.93;;;12.20;99.90;;;;;;2066039;28;20187;-69
2021/07/01 05:19:30;;;;;;;0.90;0.90;;;12.20;99.90;;;;;;2073603;28;20185;-71
2021/07/01 05:20:31;;;;;;;0.70;0.70;;;12.10;99.90;;;;;;2073592;28;20186;-70